sensor_id;sensor_type;location;lat;lon;timestamp;P1;durP1;ratioP1;P2;durP2;ratioP2
70293;SDS011;74367;35.280;-77.632;2024-03-22T00:02:06;8.17;;;0.80;;
70293;SDS011;74367;35.280;-77.632;2024-03-22T00:04:33;4.45;;;0.90;;
70293;SDS011;74367;35.280;-77.632;2024-03-22T00:06:59;3.60;;;1.13;;
70293;SDS011;74367;35.280;-77.632;2024-03-22T00:09:25;5.32;;;0.80;;
70293;SDS011;74367;35.280;-77.632;2024-03-22T00:11:51;6.43;;;1.10;;
70293;SDS011;74367;35.280;-77.632;2024-03-22T00:14:17;7.80;;;1.17;;
70293;SDS011;74367;35.280;-77.632;2024-03-22T00:16:43;8.63;;;1.33;;
70293;SDS011;74367;35.280;-77.632;2024-03-22T00:19:09;5.70;;;1.20;;
70293;SDS011;74367;35.280;-77.632;2024-03-22T00:21:35;6.57;;;1.73;;
70293;SDS011;74367;35.280;-77.632;2024-03-22T00:24:01;9.70;;;1.75;;
70293;SDS011;74367;35.280;-77.632;2024-03-22T00:26:27;7.18;;;1.35;;
70293;SDS011;74367;35.280;-77.632;2024-03-22T00:28:54;12.98;;;1.35;;
70293;SDS011;74367;35.280;-77.632;2024-03-22T00:31:23;4.35;;;1.42;;
70293;SDS011;74367;35.280;-77.632;2024-03-22T00:33:50;4.57;;;1.10;;
70293;SDS011;74367;35.280;-77.632;2024-03-22T00:36:16;7.05;;;1.88;;
70293;SDS011;74367;35.280;-77.632;2024-03-22T00:38:42;9.05;;;1.30;;
70293;SDS011;74367;35.280;-77.632;2024-03-22T00:41:08;5.75;;;1.42;;
70293;SDS011;74367;35.280;-77.632;2024-03-22T00:43:34;7.27;;;1.80;;
70293;SDS011;74367;35.280;-77.632;2024-03-22T00:46:01;8.00;;;1.52;;
70293;SDS011;74367;35.280;-77.632;2024-03-22T00:48:28;8.48;;;1.83;;
70293;SDS011;74367;35.280;-77.632;2024-03-22T00:50:54;8.32;;;1.65;;
70293;SDS011;74367;35.280;-77.632;2024-03-22T00:53:21;5.95;;;0.98;;
70293;SDS011;74367;35.280;-77.632;2024-03-22T00:55:47;5.90;;;1.00;;
70293;SDS011;74367;35.280;-77.632;2024-03-22T00:58:19;4.22;;;1.08;;
70293;SDS011;74367;35.280;-77.632;2024-03-22T01:00:46;6.88;;;1.55;;
70293;SDS011;74367;35.280;-77.632;2024-03-22T01:03:12;10.15;;;1.30;;
70293;SDS011;74367;35.280;-77.632;2024-03-22T01:05:38;5.80;;;0.73;;
70293;SDS011;74367;35.280;-77.632;2024-03-22T01:08:05;10.77;;;0.93;;
70293;SDS011;74367;35.280;-77.632;2024-03-22T01:10:33;4.68;;;0.88;;
70293;SDS011;74367;35.280;-77.632;2024-03-22T01:12:59;9.25;;;1.00;;
70293;SDS011;74367;35.280;-77.632;2024-03-22T01:15:25;4.97;;;0.60;;
70293;SDS011;74367;35.280;-77.632;2024-03-22T01:17:52;3.00;;;0.50;;
70293;SDS011;74367;35.280;-77.632;2024-03-22T01:20:18;8.80;;;0.87;;
70293;SDS011;74367;35.280;-77.632;2024-03-22T01:22:45;9.05;;;0.70;;
70293;SDS011;74367;35.280;-77.632;2024-03-22T01:25:11;4.72;;;0.75;;
70293;SDS011;74367;35.280;-77.632;2024-03-22T01:27:38;2.92;;;0.63;;
70293;SDS011;74367;35.280;-77.632;2024-03-22T01:30:04;5.68;;;1.27;;
70293;SDS011;74367;35.280;-77.632;2024-03-22T01:32:31;6.90;;;0.80;;
70293;SDS011;74367;35.280;-77.632;2024-03-22T01:34:57;8.50;;;1.00;;
70293;SDS011;74367;35.280;-77.632;2024-03-22T01:37:23;6.00;;;0.88;;
70293;SDS011;74367;35.280;-77.632;2024-03-22T01:39:50;5.93;;;0.55;;
70293;SDS011;74367;35.280;-77.632;2024-03-22T01:42:16;4.63;;;1.02;;
70293;SDS011;74367;35.280;-77.632;2024-03-22T01:44:42;5.13;;;0.70;;
70293;SDS011;74367;35.280;-77.632;2024-03-22T01:47:08;6.35;;;0.47;;
70293;SDS011;74367;35.280;-77.632;2024-03-22T01:49:35;8.23;;;0.80;;
70293;SDS011;74367;35.280;-77.632;2024-03-22T01:52:02;5.47;;;1.42;;
70293;SDS011;74367;35.280;-77.632;2024-03-22T01:54:28;7.43;;;0.88;;
70293;SDS011;74367;35.280;-77.632;2024-03-22T01:56:55;7.40;;;0.90;;
70293;SDS011;74367;35.280;-77.632;2024-03-22T01:59:21;6.22;;;0.82;;
70293;SDS011;74367;35.280;-77.632;2024-03-22T02:01:47;6.78;;;0.82;;
70293;SDS011;74367;35.280;-77.632;2024-03-22T02:04:14;5.57;;;1.05;;
70293;SDS011;74367;35.280;-77.632;2024-03-22T02:06:40;6.75;;;1.40;;
70293;SDS011;74367;35.280;-77.632;2024-03-22T02:09:06;4.10;;;0.70;;
70293;SDS011;74367;35.280;-77.632;2024-03-22T02:11:34;7.15;;;0.88;;
70293;SDS011;74367;35.280;-77.632;2024-03-22T02:14:03;4.65;;;0.98;;
70293;SDS011;74367;35.280;-77.632;2024-03-22T02:16:29;4.93;;;1.08;;
70293;SDS011;74367;35.280;-77.632;2024-03-22T02:18:55;6.70;;;0.63;;
70293;SDS011;74367;35.280;-77.632;2024-03-22T02:21:21;9.15;;;1.05;;
70293;SDS011;74367;35.280;-77.632;2024-03-22T02:23:47;5.85;;;1.13;;
70293;SDS011;74367;35.280;-77.632;2024-03-22T02:26:13;7.72;;;1.20;;
70293;SDS011;74367;35.280;-77.632;2024-03-22T02:28:39;7.00;;;0.98;;
70293;SDS011;74367;35.280;-77.632;2024-03-22T02:31:05;5.67;;;0.90;;
70293;SDS011;74367;35.280;-77.632;2024-03-22T02:33:31;8.77;;;1.00;;
70293;SDS011;74367;35.280;-77.632;2024-03-22T02:35:57;5.05;;;1.10;;
70293;SDS011;74367;35.280;-77.632;2024-03-22T02:38:23;3.80;;;1.05;;
70293;SDS011;74367;35.280;-77.632;2024-03-22T02:40:50;7.43;;;0.90;;
70293;SDS011;74367;35.280;-77.632;2024-03-22T02:43:17;5.85;;;1.10;;
70293;SDS011;74367;35.280;-77.632;2024-03-22T02:45:45;4.82;;;0.90;;
70293;SDS011;74367;35.280;-77.632;2024-03-22T02:48:12;7.75;;;1.20;;
70293;SDS011;74367;35.280;-77.632;2024-03-22T02:50:38;6.60;;;1.00;;
70293;SDS011;74367;35.280;-77.632;2024-03-22T02:53:04;5.83;;;0.70;;
70293;SDS011;74367;35.280;-77.632;2024-03-22T02:55:40;6.53;;;0.95;;
70293;SDS011;74367;35.280;-77.632;2024-03-22T02:58:06;6.85;;;1.17;;
70293;SDS011;74367;35.280;-77.632;2024-03-22T03:00:36;8.23;;;1.20;;
70293;SDS011;74367;35.280;-77.632;2024-03-22T03:03:04;5.28;;;1.00;;
70293;SDS011;74367;35.280;-77.632;2024-03-22T03:05:33;5.30;;;1.00;;
70293;SDS011;74367;35.280;-77.632;2024-03-22T03:08:00;7.18;;;1.17;;
70293;SDS011;74367;35.280;-77.632;2024-03-22T03:10:26;4.40;;;0.95;;
70293;SDS011;74367;35.280;-77.632;2024-03-22T03:12:54;5.13;;;1.27;;
70293;SDS011;74367;35.280;-77.632;2024-03-22T03:15:20;4.35;;;1.20;;
70293;SDS011;74367;35.280;-77.632;2024-03-22T03:17:46;7.37;;;1.00;;
70293;SDS011;74367;35.280;-77.632;2024-03-22T03:20:12;6.82;;;1.20;;
70293;SDS011;74367;35.280;-77.632;2024-03-22T03:22:41;6.85;;;1.40;;
70293;SDS011;74367;35.280;-77.632;2024-03-22T03:25:07;5.70;;;0.93;;
70293;SDS011;74367;35.280;-77.632;2024-03-22T03:27:34;5.78;;;1.40;;
70293;SDS011;74367;35.280;-77.632;2024-03-22T03:30:00;8.77;;;1.03;;
70293;SDS011;74367;35.280;-77.632;2024-03-22T03:32:27;6.63;;;1.20;;
70293;SDS011;74367;35.280;-77.632;2024-03-22T03:34:54;7.38;;;1.73;;
70293;SDS011;74367;35.280;-77.632;2024-03-22T03:37:20;10.27;;;1.65;;
70293;SDS011;74367;35.280;-77.632;2024-03-22T03:39:46;7.25;;;1.77;;
70293;SDS011;74367;35.280;-77.632;2024-03-22T03:42:12;7.53;;;1.40;;
70293;SDS011;74367;35.280;-77.632;2024-03-22T03:44:37;7.95;;;1.42;;
70293;SDS011;74367;35.280;-77.632;2024-03-22T03:47:03;9.25;;;1.52;;
70293;SDS011;74367;35.280;-77.632;2024-03-22T03:49:30;8.95;;;1.52;;
70293;SDS011;74367;35.280;-77.632;2024-03-22T03:51:56;9.63;;;2.10;;
70293;SDS011;74367;35.280;-77.632;2024-03-22T03:54:22;10.65;;;2.13;;
70293;SDS011;74367;35.280;-77.632;2024-03-22T03:56:48;8.05;;;1.73;;
70293;SDS011;74367;35.280;-77.632;2024-03-22T03:59:14;11.48;;;2.30;;
70293;SDS011;74367;35.280;-77.632;2024-03-22T04:01:40;8.13;;;2.13;;
70293;SDS011;74367;35.280;-77.632;2024-03-22T04:04:06;11.05;;;2.22;;
70293;SDS011;74367;35.280;-77.632;2024-03-22T04:06:32;12.63;;;2.08;;
70293;SDS011;74367;35.280;-77.632;2024-03-22T04:08:59;7.38;;;1.83;;
70293;SDS011;74367;35.280;-77.632;2024-03-22T04:11:25;9.13;;;1.80;;
70293;SDS011;74367;35.280;-77.632;2024-03-22T04:13:52;5.75;;;1.42;;
70293;SDS011;74367;35.280;-77.632;2024-03-22T04:16:18;8.85;;;1.52;;
70293;SDS011;74367;35.280;-77.632;2024-03-22T04:18:44;7.38;;;1.70;;
70293;SDS011;74367;35.280;-77.632;2024-03-22T04:21:10;6.13;;;1.77;;
70293;SDS011;74367;35.280;-77.632;2024-03-22T04:23:36;12.13;;;2.30;;
70293;SDS011;74367;35.280;-77.632;2024-03-22T04:26:02;10.40;;;1.75;;
70293;SDS011;74367;35.280;-77.632;2024-03-22T04:28:28;8.63;;;1.92;;
70293;SDS011;74367;35.280;-77.632;2024-03-22T04:31:01;9.73;;;1.83;;
70293;SDS011;74367;35.280;-77.632;2024-03-22T04:33:28;6.90;;;1.70;;
70293;SDS011;74367;35.280;-77.632;2024-03-22T04:35:55;8.00;;;1.30;;
70293;SDS011;74367;35.280;-77.632;2024-03-22T04:38:22;6.03;;;1.73;;
70293;SDS011;74367;35.280;-77.632;2024-03-22T04:40:52;8.30;;;1.52;;
70293;SDS011;74367;35.280;-77.632;2024-03-22T04:43:19;8.45;;;1.40;;
70293;SDS011;74367;35.280;-77.632;2024-03-22T04:45:46;5.90;;;1.13;;
70293;SDS011;74367;35.280;-77.632;2024-03-22T04:48:13;5.70;;;1.25;;
70293;SDS011;74367;35.280;-77.632;2024-03-22T04:50:40;7.07;;;1.25;;
70293;SDS011;74367;35.280;-77.632;2024-03-22T04:53:06;6.55;;;2.28;;
70293;SDS011;74367;35.280;-77.632;2024-03-22T04:55:32;5.67;;;1.60;;
70293;SDS011;74367;35.280;-77.632;2024-03-22T04:57:58;5.07;;;1.33;;
70293;SDS011;74367;35.280;-77.632;2024-03-22T05:00:24;4.88;;;1.38;;
70293;SDS011;74367;35.280;-77.632;2024-03-22T05:02:51;5.85;;;1.08;;
70293;SDS011;74367;35.280;-77.632;2024-03-22T05:05:17;6.32;;;1.30;;
70293;SDS011;74367;35.280;-77.632;2024-03-22T05:07:44;9.23;;;1.65;;
70293;SDS011;74367;35.280;-77.632;2024-03-22T05:10:11;4.33;;;1.20;;
70293;SDS011;74367;35.280;-77.632;2024-03-22T05:12:37;4.95;;;1.50;;
70293;SDS011;74367;35.280;-77.632;2024-03-22T05:15:04;7.50;;;1.48;;
70293;SDS011;74367;35.280;-77.632;2024-03-22T05:17:31;6.80;;;1.35;;
70293;SDS011;74367;35.280;-77.632;2024-03-22T05:20:00;4.88;;;1.50;;
70293;SDS011;74367;35.280;-77.632;2024-03-22T05:22:30;7.30;;;1.40;;
70293;SDS011;74367;35.280;-77.632;2024-03-22T05:24:57;7.57;;;1.38;;
70293;SDS011;74367;35.280;-77.632;2024-03-22T05:27:23;8.02;;;1.85;;
70293;SDS011;74367;35.280;-77.632;2024-03-22T05:29:49;11.32;;;2.20;;
70293;SDS011;74367;35.280;-77.632;2024-03-22T05:32:15;6.07;;;1.13;;
70293;SDS011;74367;35.280;-77.632;2024-03-22T05:34:41;5.63;;;1.88;;
70293;SDS011;74367;35.280;-77.632;2024-03-22T05:37:07;5.90;;;1.45;;
70293;SDS011;74367;35.280;-77.632;2024-03-22T05:39:34;6.00;;;1.48;;
70293;SDS011;74367;35.280;-77.632;2024-03-22T05:42:00;8.40;;;1.83;;
70293;SDS011;74367;35.280;-77.632;2024-03-22T05:44:26;5.22;;;1.60;;
70293;SDS011;74367;35.280;-77.632;2024-03-22T05:46:53;4.32;;;1.40;;
70293;SDS011;74367;35.280;-77.632;2024-03-22T05:49:19;8.68;;;1.65;;
70293;SDS011;74367;35.280;-77.632;2024-03-22T05:51:45;7.43;;;1.70;;
70293;SDS011;74367;35.280;-77.632;2024-03-22T05:54:11;9.35;;;1.58;;
70293;SDS011;74367;35.280;-77.632;2024-03-22T05:56:37;6.60;;;1.80;;
70293;SDS011;74367;35.280;-77.632;2024-03-22T05:59:03;8.82;;;2.08;;
70293;SDS011;74367;35.280;-77.632;2024-03-22T06:01:29;5.43;;;1.60;;
70293;SDS011;74367;35.280;-77.632;2024-03-22T06:03:54;9.55;;;1.95;;
70293;SDS011;74367;35.280;-77.632;2024-03-22T06:06:20;7.32;;;1.75;;
70293;SDS011;74367;35.280;-77.632;2024-03-22T06:08:53;7.18;;;1.83;;
70293;SDS011;74367;35.280;-77.632;2024-03-22T06:11:20;6.90;;;1.67;;
70293;SDS011;74367;35.280;-77.632;2024-03-22T06:13:49;7.95;;;2.22;;
70293;SDS011;74367;35.280;-77.632;2024-03-22T06:16:16;7.38;;;1.75;;
70293;SDS011;74367;35.280;-77.632;2024-03-22T06:18:42;9.85;;;1.55;;
70293;SDS011;74367;35.280;-77.632;2024-03-22T06:21:08;7.07;;;1.98;;
70293;SDS011;74367;35.280;-77.632;2024-03-22T06:23:34;9.93;;;1.93;;
70293;SDS011;74367;35.280;-77.632;2024-03-22T06:26:00;11.80;;;2.67;;
70293;SDS011;74367;35.280;-77.632;2024-03-22T06:28:27;10.75;;;2.20;;
70293;SDS011;74367;35.280;-77.632;2024-03-22T06:30:54;8.80;;;2.00;;
70293;SDS011;74367;35.280;-77.632;2024-03-22T06:33:20;10.10;;;1.93;;
70293;SDS011;74367;35.280;-77.632;2024-03-22T06:35:47;8.63;;;1.63;;
70293;SDS011;74367;35.280;-77.632;2024-03-22T06:38:13;6.47;;;2.53;;
70293;SDS011;74367;35.280;-77.632;2024-03-22T06:40:39;7.68;;;1.88;;
70293;SDS011;74367;35.280;-77.632;2024-03-22T06:43:05;11.55;;;2.28;;
70293;SDS011;74367;35.280;-77.632;2024-03-22T06:45:31;7.37;;;2.30;;
70293;SDS011;74367;35.280;-77.632;2024-03-22T06:47:57;7.80;;;2.38;;
70293;SDS011;74367;35.280;-77.632;2024-03-22T06:50:23;8.73;;;2.35;;
70293;SDS011;74367;35.280;-77.632;2024-03-22T06:52:50;13.43;;;2.80;;
70293;SDS011;74367;35.280;-77.632;2024-03-22T06:55:18;7.90;;;2.00;;
70293;SDS011;74367;35.280;-77.632;2024-03-22T06:57:48;10.77;;;2.58;;
70293;SDS011;74367;35.280;-77.632;2024-03-22T07:00:15;8.18;;;2.20;;
70293;SDS011;74367;35.280;-77.632;2024-03-22T07:02:42;8.13;;;2.55;;
70293;SDS011;74367;35.280;-77.632;2024-03-22T07:05:09;7.50;;;2.20;;
70293;SDS011;74367;35.280;-77.632;2024-03-22T07:07:36;8.83;;;2.97;;
70293;SDS011;74367;35.280;-77.632;2024-03-22T07:10:03;9.13;;;2.25;;
70293;SDS011;74367;35.280;-77.632;2024-03-22T07:12:33;8.13;;;2.50;;
70293;SDS011;74367;35.280;-77.632;2024-03-22T07:15:00;11.43;;;2.38;;
70293;SDS011;74367;35.280;-77.632;2024-03-22T07:17:27;9.93;;;3.30;;
70293;SDS011;74367;35.280;-77.632;2024-03-22T07:19:53;12.83;;;2.53;;
70293;SDS011;74367;35.280;-77.632;2024-03-22T07:22:19;10.25;;;2.15;;
70293;SDS011;74367;35.280;-77.632;2024-03-22T07:24:46;7.57;;;2.15;;
70293;SDS011;74367;35.280;-77.632;2024-03-22T07:27:13;7.05;;;2.03;;
70293;SDS011;74367;35.280;-77.632;2024-03-22T07:29:42;9.73;;;2.88;;
70293;SDS011;74367;35.280;-77.632;2024-03-22T07:32:10;7.87;;;2.07;;
70293;SDS011;74367;35.280;-77.632;2024-03-22T07:34:36;8.05;;;2.08;;
70293;SDS011;74367;35.280;-77.632;2024-03-22T07:37:02;8.65;;;2.72;;
70293;SDS011;74367;35.280;-77.632;2024-03-22T07:39:29;5.97;;;2.05;;
70293;SDS011;74367;35.280;-77.632;2024-03-22T07:41:55;5.47;;;2.03;;
70293;SDS011;74367;35.280;-77.632;2024-03-22T07:44:21;6.45;;;2.40;;
70293;SDS011;74367;35.280;-77.632;2024-03-22T07:46:50;8.20;;;1.98;;
70293;SDS011;74367;35.280;-77.632;2024-03-22T07:49:16;7.07;;;2.25;;
70293;SDS011;74367;35.280;-77.632;2024-03-22T07:51:42;9.75;;;3.30;;
70293;SDS011;74367;35.280;-77.632;2024-03-22T07:54:08;8.57;;;2.20;;
70293;SDS011;74367;35.280;-77.632;2024-03-22T07:56:34;8.13;;;2.13;;
70293;SDS011;74367;35.280;-77.632;2024-03-22T07:59:00;8.05;;;2.05;;
70293;SDS011;74367;35.280;-77.632;2024-03-22T08:01:26;9.93;;;2.47;;
70293;SDS011;74367;35.280;-77.632;2024-03-22T08:03:52;7.10;;;2.25;;
70293;SDS011;74367;35.280;-77.632;2024-03-22T08:06:18;6.57;;;2.30;;
70293;SDS011;74367;35.280;-77.632;2024-03-22T08:08:44;8.88;;;2.42;;
70293;SDS011;74367;35.280;-77.632;2024-03-22T08:11:10;9.18;;;2.50;;
70293;SDS011;74367;35.280;-77.632;2024-03-22T08:13:36;7.80;;;1.90;;
70293;SDS011;74367;35.280;-77.632;2024-03-22T08:16:03;8.70;;;2.10;;
70293;SDS011;74367;35.280;-77.632;2024-03-22T08:18:29;7.93;;;2.00;;
70293;SDS011;74367;35.280;-77.632;2024-03-22T08:20:55;9.30;;;2.30;;
70293;SDS011;74367;35.280;-77.632;2024-03-22T08:23:21;7.50;;;2.30;;
70293;SDS011;74367;35.280;-77.632;2024-03-22T08:25:48;7.57;;;2.20;;
70293;SDS011;74367;35.280;-77.632;2024-03-22T08:28:14;10.52;;;2.47;;
70293;SDS011;74367;35.280;-77.632;2024-03-22T08:30:41;8.93;;;2.22;;
70293;SDS011;74367;35.280;-77.632;2024-03-22T08:33:07;7.75;;;1.92;;
70293;SDS011;74367;35.280;-77.632;2024-03-22T08:35:34;8.83;;;1.97;;
70293;SDS011;74367;35.280;-77.632;2024-03-22T08:38:00;6.28;;;2.08;;
70293;SDS011;74367;35.280;-77.632;2024-03-22T08:40:26;11.48;;;1.77;;
70293;SDS011;74367;35.280;-77.632;2024-03-22T08:42:52;5.70;;;2.13;;
70293;SDS011;74367;35.280;-77.632;2024-03-22T08:45:18;9.70;;;2.27;;
70293;SDS011;74367;35.280;-77.632;2024-03-22T08:47:44;8.70;;;2.28;;
70293;SDS011;74367;35.280;-77.632;2024-03-22T08:50:13;9.95;;;2.83;;
70293;SDS011;74367;35.280;-77.632;2024-03-22T08:52:40;6.32;;;2.47;;
70293;SDS011;74367;35.280;-77.632;2024-03-22T08:55:05;6.97;;;2.10;;
70293;SDS011;74367;35.280;-77.632;2024-03-22T08:57:32;9.18;;;2.15;;
70293;SDS011;74367;35.280;-77.632;2024-03-22T08:59:59;8.70;;;2.65;;
70293;SDS011;74367;35.280;-77.632;2024-03-22T09:02:25;7.55;;;2.83;;
70293;SDS011;74367;35.280;-77.632;2024-03-22T09:04:52;10.05;;;2.47;;
70293;SDS011;74367;35.280;-77.632;2024-03-22T09:07:19;9.47;;;2.27;;
70293;SDS011;74367;35.280;-77.632;2024-03-22T09:09:45;7.93;;;3.08;;
70293;SDS011;74367;35.280;-77.632;2024-03-22T09:12:11;10.60;;;3.00;;
70293;SDS011;74367;35.280;-77.632;2024-03-22T09:14:37;6.38;;;2.55;;
70293;SDS011;74367;35.280;-77.632;2024-03-22T09:17:04;8.45;;;2.83;;
70293;SDS011;74367;35.280;-77.632;2024-03-22T09:19:30;7.47;;;2.67;;
70293;SDS011;74367;35.280;-77.632;2024-03-22T09:21:57;9.00;;;2.88;;
70293;SDS011;74367;35.280;-77.632;2024-03-22T09:24:23;9.38;;;3.05;;
70293;SDS011;74367;35.280;-77.632;2024-03-22T09:26:49;7.07;;;2.80;;
70293;SDS011;74367;35.280;-77.632;2024-03-22T09:29:16;13.17;;;3.20;;
70293;SDS011;74367;35.280;-77.632;2024-03-22T09:31:43;8.10;;;2.55;;
70293;SDS011;74367;35.280;-77.632;2024-03-22T09:34:09;11.85;;;3.10;;
70293;SDS011;74367;35.280;-77.632;2024-03-22T09:36:35;9.95;;;3.10;;
70293;SDS011;74367;35.280;-77.632;2024-03-22T09:39:01;10.97;;;3.00;;
70293;SDS011;74367;35.280;-77.632;2024-03-22T09:41:28;8.30;;;3.33;;
70293;SDS011;74367;35.280;-77.632;2024-03-22T09:43:59;7.32;;;2.97;;
70293;SDS011;74367;35.280;-77.632;2024-03-22T09:46:28;12.25;;;2.95;;
70293;SDS011;74367;35.280;-77.632;2024-03-22T09:48:55;9.02;;;2.97;;
70293;SDS011;74367;35.280;-77.632;2024-03-22T09:51:23;10.53;;;2.47;;
70293;SDS011;74367;35.280;-77.632;2024-03-22T09:53:51;9.43;;;3.53;;
70293;SDS011;74367;35.280;-77.632;2024-03-22T09:56:20;8.68;;;3.50;;
70293;SDS011;74367;35.280;-77.632;2024-03-22T09:58:47;9.70;;;3.30;;
70293;SDS011;74367;35.280;-77.632;2024-03-22T10:01:13;9.55;;;3.40;;
70293;SDS011;74367;35.280;-77.632;2024-03-22T10:03:41;8.03;;;3.03;;
70293;SDS011;74367;35.280;-77.632;2024-03-22T10:06:08;7.15;;;2.58;;
70293;SDS011;74367;35.280;-77.632;2024-03-22T10:08:34;8.43;;;2.90;;
70293;SDS011;74367;35.280;-77.632;2024-03-22T10:11:03;8.38;;;2.80;;
70293;SDS011;74367;35.280;-77.632;2024-03-22T10:13:29;7.25;;;3.05;;
70293;SDS011;74367;35.280;-77.632;2024-03-22T10:15:56;6.97;;;2.80;;
70293;SDS011;74367;35.280;-77.632;2024-03-22T10:18:22;7.97;;;2.88;;
70293;SDS011;74367;35.280;-77.632;2024-03-22T10:20:58;9.18;;;3.55;;
70293;SDS011;74367;35.280;-77.632;2024-03-22T10:23:28;11.10;;;3.30;;
70293;SDS011;74367;35.280;-77.632;2024-03-22T10:25:58;7.70;;;2.80;;
70293;SDS011;74367;35.280;-77.632;2024-03-22T10:28:25;9.18;;;3.45;;
70293;SDS011;74367;35.280;-77.632;2024-03-22T10:30:51;8.60;;;2.50;;
70293;SDS011;74367;35.280;-77.632;2024-03-22T10:33:21;10.02;;;2.53;;
70293;SDS011;74367;35.280;-77.632;2024-03-22T10:35:54;8.70;;;3.70;;
70293;SDS011;74367;35.280;-77.632;2024-03-22T10:38:21;10.83;;;3.50;;
70293;SDS011;74367;35.280;-77.632;2024-03-22T10:40:48;8.65;;;3.05;;
70293;SDS011;74367;35.280;-77.632;2024-03-22T10:43:14;9.88;;;3.17;;
70293;SDS011;74367;35.280;-77.632;2024-03-22T10:45:41;10.73;;;2.88;;
70293;SDS011;74367;35.280;-77.632;2024-03-22T10:48:08;12.32;;;3.67;;
70293;SDS011;74367;35.280;-77.632;2024-03-22T10:50:39;8.43;;;3.00;;
70293;SDS011;74367;35.280;-77.632;2024-03-22T10:53:12;8.98;;;3.05;;
70293;SDS011;74367;35.280;-77.632;2024-03-22T10:55:46;9.65;;;2.90;;
70293;SDS011;74367;35.280;-77.632;2024-03-22T10:58:17;9.45;;;3.20;;
70293;SDS011;74367;35.280;-77.632;2024-03-22T11:00:46;11.35;;;3.40;;
70293;SDS011;74367;35.280;-77.632;2024-03-22T11:03:13;9.07;;;3.30;;
70293;SDS011;74367;35.280;-77.632;2024-03-22T11:05:48;11.90;;;3.53;;
70293;SDS011;74367;35.280;-77.632;2024-03-22T11:08:28;8.90;;;3.50;;
70293;SDS011;74367;35.280;-77.632;2024-03-22T11:10:57;12.73;;;3.70;;
70293;SDS011;74367;35.280;-77.632;2024-03-22T11:13:35;9.77;;;3.95;;
70293;SDS011;74367;35.280;-77.632;2024-03-22T11:16:03;9.00;;;3.77;;
70293;SDS011;74367;35.280;-77.632;2024-03-22T11:18:29;9.82;;;3.10;;
70293;SDS011;74367;35.280;-77.632;2024-03-22T11:20:55;7.72;;;3.90;;
70293;SDS011;74367;35.280;-77.632;2024-03-22T11:23:21;12.18;;;3.97;;
70293;SDS011;74367;35.280;-77.632;2024-03-22T11:25:47;9.82;;;3.83;;
70293;SDS011;74367;35.280;-77.632;2024-03-22T11:28:13;11.77;;;3.60;;
70293;SDS011;74367;35.280;-77.632;2024-03-22T11:30:40;8.30;;;3.03;;
70293;SDS011;74367;35.280;-77.632;2024-03-22T11:33:07;9.30;;;3.58;;
70293;SDS011;74367;35.280;-77.632;2024-03-22T11:35:33;13.60;;;3.53;;
70293;SDS011;74367;35.280;-77.632;2024-03-22T11:38:00;8.27;;;3.13;;
70293;SDS011;74367;35.280;-77.632;2024-03-22T11:40:26;12.55;;;3.08;;
70293;SDS011;74367;35.280;-77.632;2024-03-22T11:42:53;10.45;;;3.42;;
70293;SDS011;74367;35.280;-77.632;2024-03-22T11:45:20;10.02;;;3.10;;
70293;SDS011;74367;35.280;-77.632;2024-03-22T11:47:48;9.45;;;3.10;;
70293;SDS011;74367;35.280;-77.632;2024-03-22T11:50:14;7.77;;;2.27;;
70293;SDS011;74367;35.280;-77.632;2024-03-22T11:52:42;9.57;;;2.80;;
70293;SDS011;74367;35.280;-77.632;2024-03-22T11:55:10;8.15;;;3.05;;
70293;SDS011;74367;35.280;-77.632;2024-03-22T11:57:36;24.63;;;3.03;;
70293;SDS011;74367;35.280;-77.632;2024-03-22T12:00:02;10.48;;;3.53;;
70293;SDS011;74367;35.280;-77.632;2024-03-22T12:02:37;8.90;;;2.80;;
70293;SDS011;74367;35.280;-77.632;2024-03-22T12:05:04;11.93;;;2.92;;
70293;SDS011;74367;35.280;-77.632;2024-03-22T12:07:31;7.32;;;2.42;;
70293;SDS011;74367;35.280;-77.632;2024-03-22T12:09:58;9.48;;;2.45;;
70293;SDS011;74367;35.280;-77.632;2024-03-22T12:12:24;9.27;;;2.55;;
70293;SDS011;74367;35.280;-77.632;2024-03-22T12:14:52;8.13;;;2.33;;
70293;SDS011;74367;35.280;-77.632;2024-03-22T12:17:18;8.40;;;2.35;;
70293;SDS011;74367;35.280;-77.632;2024-03-22T12:19:44;6.50;;;2.60;;
70293;SDS011;74367;35.280;-77.632;2024-03-22T12:22:10;11.35;;;2.72;;
70293;SDS011;74367;35.280;-77.632;2024-03-22T12:24:37;8.45;;;2.65;;
70293;SDS011;74367;35.280;-77.632;2024-03-22T12:27:04;5.57;;;2.47;;
70293;SDS011;74367;35.280;-77.632;2024-03-22T12:29:34;11.13;;;2.92;;
70293;SDS011;74367;35.280;-77.632;2024-03-22T12:32:01;9.27;;;2.55;;
70293;SDS011;74367;35.280;-77.632;2024-03-22T12:34:32;7.93;;;2.08;;
70293;SDS011;74367;35.280;-77.632;2024-03-22T12:36:59;8.77;;;2.50;;
70293;SDS011;74367;35.280;-77.632;2024-03-22T12:39:25;8.00;;;2.43;;
70293;SDS011;74367;35.280;-77.632;2024-03-22T12:41:52;9.98;;;3.55;;
70293;SDS011;74367;35.280;-77.632;2024-03-22T12:44:19;7.53;;;2.30;;
70293;SDS011;74367;35.280;-77.632;2024-03-22T12:46:45;7.90;;;2.70;;
70293;SDS011;74367;35.280;-77.632;2024-03-22T12:49:11;9.88;;;2.67;;
70293;SDS011;74367;35.280;-77.632;2024-03-22T12:51:39;12.87;;;2.43;;
70293;SDS011;74367;35.280;-77.632;2024-03-22T12:54:06;9.15;;;2.88;;
70293;SDS011;74367;35.280;-77.632;2024-03-22T12:56:33;8.65;;;2.30;;
70293;SDS011;74367;35.280;-77.632;2024-03-22T12:58:59;9.75;;;3.53;;
70293;SDS011;74367;35.280;-77.632;2024-03-22T13:01:26;8.95;;;2.85;;
70293;SDS011;74367;35.280;-77.632;2024-03-22T13:03:52;10.13;;;2.60;;
70293;SDS011;74367;35.280;-77.632;2024-03-22T13:06:19;8.95;;;2.92;;
70293;SDS011;74367;35.280;-77.632;2024-03-22T13:08:45;10.65;;;2.97;;
70293;SDS011;74367;35.280;-77.632;2024-03-22T13:11:11;7.22;;;2.05;;
70293;SDS011;74367;35.280;-77.632;2024-03-22T13:13:38;7.78;;;3.03;;
70293;SDS011;74367;35.280;-77.632;2024-03-22T13:16:04;8.10;;;2.10;;
70293;SDS011;74367;35.280;-77.632;2024-03-22T13:18:31;8.57;;;2.40;;
70293;SDS011;74367;35.280;-77.632;2024-03-22T13:20:57;7.03;;;2.75;;
70293;SDS011;74367;35.280;-77.632;2024-03-22T13:23:24;9.90;;;2.08;;
70293;SDS011;74367;35.280;-77.632;2024-03-22T13:25:50;8.75;;;2.92;;
70293;SDS011;74367;35.280;-77.632;2024-03-22T13:28:17;10.30;;;2.43;;
70293;SDS011;74367;35.280;-77.632;2024-03-22T13:30:47;7.00;;;2.20;;
70293;SDS011;74367;35.280;-77.632;2024-03-22T13:33:14;6.72;;;2.38;;
70293;SDS011;74367;35.280;-77.632;2024-03-22T13:35:40;6.65;;;1.67;;
70293;SDS011;74367;35.280;-77.632;2024-03-22T13:38:06;8.30;;;2.93;;
70293;SDS011;74367;35.280;-77.632;2024-03-22T13:40:38;6.88;;;2.83;;
70293;SDS011;74367;35.280;-77.632;2024-03-22T13:43:05;11.77;;;2.58;;
70293;SDS011;74367;35.280;-77.632;2024-03-22T13:45:32;9.43;;;2.80;;
70293;SDS011;74367;35.280;-77.632;2024-03-22T13:47:58;8.60;;;2.25;;
70293;SDS011;74367;35.280;-77.632;2024-03-22T13:50:24;8.63;;;2.60;;
70293;SDS011;74367;35.280;-77.632;2024-03-22T13:52:50;7.75;;;2.28;;
70293;SDS011;74367;35.280;-77.632;2024-03-22T13:55:16;5.80;;;2.50;;
70293;SDS011;74367;35.280;-77.632;2024-03-22T13:57:42;8.65;;;2.00;;
70293;SDS011;74367;35.280;-77.632;2024-03-22T14:00:08;12.53;;;2.43;;
70293;SDS011;74367;35.280;-77.632;2024-03-22T14:02:39;8.25;;;2.05;;
70293;SDS011;74367;35.280;-77.632;2024-03-22T14:05:05;7.18;;;2.63;;
70293;SDS011;74367;35.280;-77.632;2024-03-22T14:07:33;8.50;;;2.28;;
70293;SDS011;74367;35.280;-77.632;2024-03-22T14:10:00;10.10;;;2.47;;
70293;SDS011;74367;35.280;-77.632;2024-03-22T14:12:26;8.50;;;1.87;;
70293;SDS011;74367;35.280;-77.632;2024-03-22T14:14:52;12.00;;;2.33;;
70293;SDS011;74367;35.280;-77.632;2024-03-22T14:17:17;12.27;;;2.08;;